Time;durP1;ratioP1;P1;durP2;ratioP2;P2;SDS_P1;SDS_P2;PMS_P1;PMS_P2;Temp;Humidity;BMP_temperature;BMP_pressure;BME280_temperature;BME280_humidity;BME280_pressure;Samples;Min_cycle;Max_cycle;Signal;HPM_P1;HPM_P2
2022/08/29 00:02:13;;;;;;;2.17;1.77;;;;;;;;;;4923735;29;20079;-46
2022/08/29 00:04:48;;;;;;;6.07;2.03;;;;;;;;;;4923773;29;20094;-48
2022/08/29 00:07:15;;;;;;;2.15;1.70;;;;;;;;;;4922597;29;20051;-48
2022/08/29 00:09:42;;;;;;;5.22;2.00;;;;;;;;;;4923951;29;20111;-61
2022/08/29 00:12:16;;;;;;;4.45;1.90;;;;;;;;;;4919882;29;20056;-48
2022/08/29 00:14:44;;;;;;;5.43;1.95;;;;;;;;;;4923638;29;20526;-60
2022/08/29 00:17:11;;;;;;;;;;;;;;;;;;4925453;29;20043;-60
2022/08/29 00:19:45;;;;;;;5.40;1.90;;;;;;;;;;4923028;29;19981;-61
2022/08/29 00:22:12;;;;;;;3.88;1.83;;;;;;;;;;4920252;29;20048;-60
2022/08/29 00:24:40;;;;;;;4.40;1.92;;;;;;;;;;4922803;29;20091;-60
2022/08/29 00:27:13;;;;;;;3.80;1.90;;;;;;;;;;4923305;29;20595;-60
2022/08/29 00:29:40;;;;;;;2.50;1.60;;;;;;;;;;4921701;29;20075;-63
2022/08/29 00:32:08;;;;;;;3.38;2.08;;;;;;;;;;4921645;29;20084;-50
2022/08/29 00:34:41;;;;;;;4.03;2.00;;;;;;;;;;4920675;29;20055;-54
2022/08/29 00:37:08;;;;;;;1.98;1.70;;;;;;;;;;4921954;29;20055;-56
2022/08/29 00:39:36;;;;;;;2.95;1.70;;;;;;;;;;4923733;29;20054;-52
2022/08/29 00:42:10;;;;;;;4.15;1.80;;;;;;;;;;4921014;29;20130;-53
2022/08/29 00:44:38;;;;;;;2.78;1.55;;;;;;;;;;4925119;29;20506;-50
2022/08/29 00:47:08;;;;;;;2.83;1.58;;;;;;;;;;4923971;29;20103;-59
2022/08/29 00:49:44;;;;;;;3.58;1.50;;;;;;;;;;4920953;29;20048;-60
2022/08/29 00:52:24;;;;;;;1.67;1.40;;;;;;;;;;4919703;29;20090;-60
2022/08/29 00:55:08;;;;;;;3.42;1.42;;;;;;;;;;4920181;29;20084;-60
2022/08/29 00:57:36;;;;;;;3.47;1.77;;;;;;;;;;4918086;29;20080;-60
2022/08/29 01:00:11;;;;;;;2.40;1.27;;;;;;;;;;4922722;29;20067;-60
2022/08/29 01:02:40;;;;;;;5.00;1.45;;;;;;;;;;4921502;29;20134;-60
2022/08/29 01:05:09;;;;;;;10.77;2.60;;;;;;;;;;4922342;29;20104;-61
2022/08/29 01:07:44;;;;;;;3.63;1.80;;;;;;;;;;4920995;29;20055;-58
2022/08/29 01:12:14;;;;;;;3.30;1.60;;;;;;;;;;4921632;29;20079;-59
2022/08/29 01:13:06;;;;;;;2.33;1.67;;;;;;;;;;4924529;29;20099;-59
2022/08/29 01:15:34;;;;;;;2.53;1.10;;;;;;;;;;4922151;29;20052;-59
2022/08/29 01:18:02;;;;;;;3.63;1.45;;;;;;;;;;4925152;29;20103;-58
2022/08/29 01:20:38;;;;;;;2.05;1.27;;;;;;;;;;4926936;29;20043;-59
2022/08/29 01:23:24;;;;;;;4.25;1.60;;;;;;;;;;4923339;29;20132;-60
2022/08/29 01:25:59;;;;;;;2.15;1.45;;;;;;;;;;4925789;29;20063;-59
2022/08/29 01:28:34;;;;;;;1.85;1.58;;;;;;;;;;4926710;29;20060;-46
2022/08/29 01:31:14;;;;;;;3.45;1.38;;;;;;;;;;4924254;29;20044;-48
2022/08/29 01:34:01;;;;;;;5.38;1.98;;;;;;;;;;4923693;29;20066;-48
2022/08/29 01:36:38;;;;;;;3.53;1.58;;;;;;;;;;4908201;29;20059;-46
2022/08/29 01:39:06;;;;;;;8.55;1.70;;;;;;;;;;4926698;29;20645;-48
2022/08/29 01:41:34;;;;;;;3.80;1.80;;;;;;;;;;4925509;29;20082;-49
2022/08/29 01:44:09;;;;;;;4.28;1.42;;;;;;;;;;4924709;29;20059;-64
2022/08/29 01:46:36;;;;;;;1.80;1.40;;;;;;;;;;4924732;29;20051;-64
2022/08/29 01:49:06;;;;;;;3.00;1.65;;;;;;;;;;4925684;29;20475;-63
2022/08/29 01:51:40;;;;;;;4.78;1.60;;;;;;;;;;4926049;29;20592;-63
2022/08/29 01:54:21;;;;;;;2.38;1.77;;;;;;;;;;4922663;29;20051;-63
2022/08/29 01:56:55;;;;;;;1.88;1.52;;;;;;;;;;4926818;29;20075;-63
2022/08/29 01:59:25;;;;;;;1.92;1.67;;;;;;;;;;4925523;29;20052;-63
2022/08/29 02:01:59;;;;;;;2.97;1.73;;;;;;;;;;4924890;29;20059;-51
2022/08/29 02:04:32;;;;;;;6.43;1.70;;;;;;;;;;4916121;29;20499;-60
2022/08/29 02:07:00;;;;;;;3.65;1.60;;;;;;;;;;4925454;29;20051;-60
2022/08/29 02:09:28;;;;;;;3.38;1.85;;;;;;;;;;4926850;29;20495;-59
2022/08/29 02:12:06;;;;;;;2.53;1.30;;;;;;;;;;4926844;29;20071;-60
2022/08/29 02:14:34;;;;;;;2.17;1.40;;;;;;;;;;4914789;29;20052;-60
2022/08/29 02:17:02;;;;;;;5.18;2.05;;;;;;;;;;4926320;29;20052;-60
2022/08/29 02:19:36;;;;;;;2.72;1.58;;;;;;;;;;4918239;29;20079;-49
2022/08/29 02:22:04;;;;;;;3.63;1.30;;;;;;;;;;4920687;28;20105;-61
2022/08/29 02:24:31;;;;;;;6.05;1.50;;;;;;;;;;4915817;29;20055;-61
2022/08/29 02:27:05;;;;;;;4.03;1.75;;;;;;;;;;4925680;29;20126;-60
2022/08/29 02:29:36;;;;;;;2.17;1.15;;;;;;;;;;4922792;29;20052;-61
2022/08/29 02:32:06;;;;;;;4.68;1.00;;;;;;;;;;4923101;29;20044;-61
2022/08/29 02:34:45;;;;;;;4.03;1.55;;;;;;;;;;4922567;29;20534;-61
2022/08/29 02:37:15;;;;;;;3.28;1.45;;;;;;;;;;4924230;29;20075;-60
2022/08/29 02:39:48;;;;;;;2.65;1.40;;;;;;;;;;4921782;29;20052;-62
2022/08/29 02:42:15;;;;;;;1.30;1.20;;;;;;;;;;4920825;29;20499;-63
2022/08/29 02:44:43;;;;;;;2.78;1.50;;;;;;;;;;4923187;29;20197;-63
2022/08/29 02:47:17;;;;;;;3.30;1.50;;;;;;;;;;4924853;29;20047;-63
2022/08/29 02:49:44;;;;;;;;;;;;;;;;;;4921998;29;20075;-63
2022/08/29 02:52:11;;;;;;;3.13;1.50;;;;;;;;;;4924339;29;19961;-63
2022/08/29 02:54:52;;;;;;;3.72;1.42;;;;;;;;;;4924524;29;20574;-64
2022/08/29 02:57:19;;;;;;;4.07;1.30;;;;;;;;;;4916872;29;20143;-61
2022/08/29 02:59:53;;;;;;;3.33;1.27;;;;;;;;;;4921672;29;20492;-63
2022/08/29 03:02:21;;;;;;;4.45;1.45;;;;;;;;;;4923210;29;20071;-63
2022/08/29 03:04:48;;;;;;;9.05;2.03;;;;;;;;;;4923255;29;20142;-63
2022/08/29 03:07:21;;;;;;;5.15;1.48;;;;;;;;;;4922628;29;20103;-63
2022/08/29 03:09:48;;;;;;;5.53;1.45;;;;;;;;;;4906476;29;20479;-62
2022/08/29 03:12:16;;;;;;;5.63;1.77;;;;;;;;;;4925800;29;20096;-63
2022/08/29 03:14:52;;;;;;;3.38;1.48;;;;;;;;;;4923978;29;20051;-60
2022/08/29 03:17:19;;;;;;;4.72;1.83;;;;;;;;;;4921652;29;20103;-60
2022/08/29 03:19:47;;;;;;;4.35;1.45;;;;;;;;;;4920717;29;20467;-60
2022/08/29 03:22:20;;;;;;;4.18;1.70;;;;;;;;;;4924571;29;20075;-61
2022/08/29 03:24:47;;;;;;;2.58;1.80;;;;;;;;;;4924026;29;20072;-59
2022/08/29 03:27:15;;;;;;;8.15;1.77;;;;;;;;;;4923189;29;20052;-60
2022/08/29 03:29:48;;;;;;;2.90;1.63;;;;;;;;;;4924993;29;20895;-59
2022/08/29 03:32:16;;;;;;;4.55;1.42;;;;;;;;;;4919428;29;20048;-72
2022/08/29 03:34:43;;;;;;;4.55;1.67;;;;;;;;;;4923865;29;20143;-60
2022/08/29 03:37:17;;;;;;;6.18;1.90;;;;;;;;;;4922584;29;20047;-60
2022/08/29 03:39:45;;;;;;;5.35;1.52;;;;;;;;;;4922085;29;20050;-60
2022/08/29 03:42:12;;;;;;;3.50;1.90;;;;;;;;;;4922989;29;20067;-59
2022/08/29 03:44:46;;;;;;;3.30;1.50;;;;;;;;;;4923579;29;20075;-59
2022/08/29 03:47:14;;;;;;;2.70;1.70;;;;;;;;;;4922847;29;20098;-60
2022/08/29 03:49:41;;;;;;;3.13;1.63;;;;;;;;;;4923725;28;20055;-60
2022/08/29 03:52:15;;;;;;;3.25;1.80;;;;;;;;;;4923367;29;20068;-60
2022/08/29 03:54:54;;;;;;;2.95;1.60;;;;;;;;;;4920728;29;20146;-60
2022/08/29 03:57:32;;;;;;;3.67;1.92;;;;;;;;;;4926286;29;20082;-60
2022/08/29 04:00:00;;;;;;;5.20;1.80;;;;;;;;;;4923325;29;20138;-60
2022/08/29 04:02:27;;;;;;;3.30;1.67;;;;;;;;;;4924321;29;20106;-60
2022/08/29 04:05:08;;;;;;;3.05;1.70;;;;;;;;;;4923556;29;20477;-60
2022/08/29 04:07:40;;;;;;;4.22;1.80;;;;;;;;;;4926230;29;20051;-60
2022/08/29 04:10:16;;;;;;;6.28;1.88;;;;;;;;;;4914487;29;20052;-63
2022/08/29 04:12:44;;;;;;;13.60;2.17;;;;;;;;;;4922565;29;20075;-63
2022/08/29 04:15:11;;;;;;;5.18;1.77;;;;;;;;;;4923065;29;20056;-64
2022/08/29 04:17:45;;;;;;;3.35;1.90;;;;;;;;;;4923477;29;20111;-63
2022/08/29 04:20:20;;;;;;;4.57;1.80;;;;;;;;;;4919121;29;20047;-64
2022/08/29 04:22:55;;;;;;;4.43;1.60;;;;;;;;;;4922799;29;20059;-64
2022/08/29 04:25:23;;;;;;;3.08;1.60;;;;;;;;;;4921534;29;20081;-64
2022/08/29 04:27:51;;;;;;;3.75;1.80;;;;;;;;;;4921074;29;20055;-53
2022/08/29 04:30:25;;;;;;;3.35;1.45;;;;;;;;;;4918989;29;20116;-50
2022/08/29 04:32:52;;;;;;;1.85;1.45;;;;;;;;;;4919244;29;20075;-50
2022/08/29 04:35:19;;;;;;;2.58;1.70;;;;;;;;;;4921895;29;20079;-48
2022/08/29 04:37:53;;;;;;;11.23;5.25;;;;;;;;;;4924066;29;20111;-46
2022/08/29 04:40:21;;;;;;;9.75;7.47;;;;;;;;;;4922149;29;20052;-50
2022/08/29 04:42:49;;;;;;;4.85;1.60;;;;;;;;;;4924986;29;20611;-47
2022/08/29 04:45:25;;;;;;;2.10;1.60;;;;;;;;;;4924087;29;20083;-61
2022/08/29 04:47:52;;;;;;;4.43;1.60;;;;;;;;;;4925362;29;20083;-61
2022/08/29 04:50:20;;;;;;;3.38;1.45;;;;;;;;;;4921293;29;20051;-72
2022/08/29 04:52:55;;;;;;;2.92;1.55;;;;;;;;;;4920896;29;20064;-71
2022/08/29 04:55:22;;;;;;;;;;;;;;;;;;4925232;29;20515;-72
2022/08/29 04:57:58;;;;;;;2.45;1.60;;;;;;;;;;4924892;29;19923;-71
2022/08/29 05:00:37;;;;;;;1.65;1.40;;;;;;;;;;4921242;29;20173;-71
2022/08/29 05:03:06;;;;;;;2.28;1.58;;;;;;;;;;4922417;29;20103;-71
2022/08/29 05:05:40;;;;;;;4.28;1.17;;;;;;;;;;4927576;29;20062;-61
2022/08/29 05:08:08;;;;;;;3.85;1.60;;;;;;;;;;4925277;29;20056;-72
2022/08/29 05:10:36;;;;;;;4.13;1.88;;;;;;;;;;4926173;29;20059;-71
2022/08/29 05:13:09;;;;;;;2.17;1.52;;;;;;;;;;4929187;29;20107;-71
2022/08/29 05:15:37;;;;;;;1.88;1.50;;;;;;;;;;4923412;29;20048;-71
2022/08/29 05:18:05;;;;;;;3.20;1.40;;;;;;;;;;4927205;29;20060;-71
2022/08/29 05:20:40;;;;;;;4.88;1.38;;;;;;;;;;4918932;29;20060;-71
2022/08/29 05:23:08;;;;;;;1.23;1.13;;;;;;;;;;4926135;29;20052;-51
2022/08/29 05:25:40;;;;;;;3.75;1.20;;;;;;;;;;4925868;29;20067;-64
2022/08/29 05:28:19;;;;;;;5.68;1.40;;;;;;;;;;4924797;29;20047;-64
2022/08/29 05:30:46;;;;;;;2.55;1.50;;;;;;;;;;4922352;29;20604;-63
2022/08/29 05:33:13;;;;;;;4.10;1.52;;;;;;;;;;4925204;29;20048;-63
2022/08/29 05:35:47;;;;;;;3.00;1.33;;;;;;;;;;4923742;29;20484;-64
2022/08/29 05:38:15;;;;;;;2.85;1.67;;;;;;;;;;4925260;29;20083;-64
2022/08/29 05:40:42;;;;;;;3.60;1.35;;;;;;;;;;4923736;29;20048;-71
2022/08/29 05:43:16;;;;;;;2.53;1.50;;;;;;;;;;4927137;29;20079;-52
2022/08/29 05:45:44;;;;;;;4.05;1.60;;;;;;;;;;4925355;29;20513;-64
2022/08/29 05:48:13;;;;;;;;;;;;;;;;;;4923540;29;20076;-64
2022/08/29 05:50:48;;;;;;;3.47;1.20;;;;;;;;;;4925198;29;20771;-64
2022/08/29 05:53:21;;;;;;;3.72;1.40;;;;;;;;;;4922164;29;20107;-64
2022/08/29 05:56:02;;;;;;;2.92;1.30;;;;;;;;;;4925823;29;20047;-64
2022/08/29 05:58:29;;;;;;;2.33;1.30;;;;;;;;;;4923767;29;20130;-63
2022/08/29 06:01:04;;;;;;;2.58;1.45;;;;;;;;;;4923347;29;20393;-61
2022/08/29 06:03:31;;;;;;;3.20;1.33;;;;;;;;;;4923864;29;20083;-49
2022/08/29 06:05:58;;;;;;;6.55;1.60;;;;;;;;;;4927061;29;20076;-50
2022/08/29 06:08:32;;;;;;;2.30;1.40;;;;;;;;;;4913777;29;20134;-50
2022/08/29 06:11:00;;;;;;;3.05;1.00;;;;;;;;;;4924549;29;20567;-52
2022/08/29 06:13:27;;;;;;;5.32;1.50;;;;;;;;;;4925980;29;20095;-49
2022/08/29 06:16:01;;;;;;;2.70;1.55;;;;;;;;;;4922516;29;20088;-50
2022/08/29 06:18:28;;;;;;;3.42;1.35;;;;;;;;;;4920626;29;20091;-64
2022/08/29 06:21:03;;;;;;;4.05;1.98;;;;;;;;;;4922145;29;20404;-55
2022/08/29 06:23:38;;;;;;;4.40;1.33;;;;;;;;;;4915903;29;20094;-54
2022/08/29 06:26:06;;;;;;;3.45;1.75;;;;;;;;;;4925806;29;20083;-55
2022/08/29 06:28:34;;;;;;;3.17;1.40;;;;;;;;;;4920274;29;20055;-54
2022/08/29 06:31:10;;;;;;;1.92;1.42;;;;;;;;;;4922911;29;20071;-56
2022/08/29 06:33:38;;;;;;;2.22;1.30;;;;;;;;;;4926355;29;20078;-51
2022/08/29 06:36:05;;;;;;;2.63;1.58;;;;;;;;;;4923408;29;20112;-64
2022/08/29 06:38:39;;;;;;;2.60;1.80;;;;;;;;;;4920540;29;20052;-52
2022/08/29 06:41:11;;;;;;;3.17;1.55;;;;;;;;;;4922872;29;20052;-54
2022/08/29 06:43:39;;;;;;;3.53;1.92;;;;;;;;;;4922548;29;20115;-51
2022/08/29 06:46:23;;;;;;;3.33;1.27;;;;;;;;;;4926225;29;20051;-54
2022/08/29 06:48:50;;;;;;;;;;;;;;;;;;4923069;29;20048;-50
2022/08/29 06:51:25;;;;;;;4.22;1.30;;;;;;;;;;4925810;29;19938;-54
2022/08/29 06:53:59;;;;;;;3.05;0.88;;;;;;;;;;4924044;29;20531;-53
2022/08/29 06:56:34;;;;;;;3.80;1.60;;;;;;;;;;4925835;29;20095;-50
2022/08/29 06:59:03;;;;;;;3.35;1.40;;;;;;;;;;4921813;29;20074;-65
2022/08/29 07:01:30;;;;;;;;;;;;;;;;;;4922728;29;20048;-65
2022/08/29 07:04:09;;;;;;;2.72;1.40;;;;;;;;;;4926619;29;19955;-64
2022/08/29 07:06:40;;;;;;;1.88;1.40;;;;;;;;;;4922314;29;20055;-66
2022/08/29 07:09:15;;;;;;;3.47;1.42;;;;;;;;;;4923147;29;20054;-65
2022/08/29 07:11:42;;;;;;;3.65;1.35;;;;;;;;;;4923268;29;20440;-65
2022/08/29 07:14:11;;;;;;;1.50;1.25;;;;;;;;;;4924091;29;20478;-65
2022/08/29 07:16:46;;;;;;;1.75;1.13;;;;;;;;;;4923003;29;20442;-59
2022/08/29 07:19:14;;;;;;;1.90;1.38;;;;;;;;;;4925187;29;20048;-59
2022/08/29 07:21:41;;;;;;;1.80;1.20;;;;;;;;;;4923441;29;20059;-59
2022/08/29 07:24:14;;;;;;;3.67;1.50;;;;;;;;;;4923533;29;20055;-58
2022/08/29 07:26:42;;;;;;;3.53;1.25;;;;;;;;;;4925091;29;20734;-58
2022/08/29 07:29:14;;;;;;;1.48;0.90;;;;;;;;;;4919194;29;20044;-58
2022/08/29 07:31:52;;;;;;;1.83;1.25;;;;;;;;;;4920541;29;20055;-60
2022/08/29 07:34:19;;;;;;;1.40;1.17;;;;;;;;;;4921937;29;20134;-51
2022/08/29 07:36:47;;;;;;;2.28;1.20;;;;;;;;;;4920430;29;20059;-51
2022/08/29 07:39:22;;;;;;;2.00;1.13;;;;;;;;;;4913310;29;20071;-51
2022/08/29 07:41:50;;;;;;;3.08;1.05;;;;;;;;;;4913518;29;20047;-49
2022/08/29 07:44:17;;;;;;;2.17;1.20;;;;;;;;;;4923062;29;20075;-52
2022/08/29 07:46:57;;;;;;;2.30;1.20;;;;;;;;;;4919372;29;20840;-53
2022/08/29 07:49:24;;;;;;;1.92;1.20;;;;;;;;;;4921496;29;20056;-50
2022/08/29 07:52:07;;;;;;;2.90;1.30;;;;;;;;;;4916667;29;20050;-61
2022/08/29 07:54:41;;;;;;;2.08;1.00;;;;;;;;;;4921761;29;20056;-61
2022/08/29 07:57:24;;;;;;;3.38;1.02;;;;;;;;;;4917928;29;20156;-62
2022/08/29 07:59:51;;;;;;;2.10;1.15;;;;;;;;;;4925671;29;20056;-62
2022/08/29 08:02:25;;;;;;;1.23;1.00;;;;;;;;;;4919844;29;20574;-62
2022/08/29 08:04:53;;;;;;;2.17;1.13;;;;;;;;;;4920779;29;20396;-61
2022/08/29 08:07:20;;;;;;;3.75;1.02;;;;;;;;;;4923372;29;20070;-61
2022/08/29 08:09:55;;;;;;;1.98;1.23;;;;;;;;;;4920799;29;20063;-61
2022/08/29 08:12:24;;;;;;;3.00;1.20;;;;;;;;;;4916309;29;20678;-61
2022/08/29 08:14:51;;;;;;;4.50;0.70;;;;;;;;;;4923595;29;20052;-61
2022/08/29 08:17:25;;;;;;;1.10;0.73;;;;;;;;;;4924391;29;20400;-64
2022/08/29 08:19:53;;;;;;;0.63;0.63;;;;;;;;;;4924639;29;20079;-63
2022/08/29 08:22:20;;;;;;;1.88;1.02;;;;;;;;;;4926864;29;20522;-63
2022/08/29 08:25:02;;;;;;;2.88;0.93;;;;;;;;;;4926361;29;20511;-64
2022/08/29 08:27:29;;;;;;;2.75;0.93;;;;;;;;;;4925644;29;20052;-62
2022/08/29 08:30:09;;;;;;;1.58;1.00;;;;;;;;;;4916262;29;20500;-47
2022/08/29 08:32:44;;;;;;;5.30;1.05;;;;;;;;;;4925377;29;20059;-52
2022/08/29 08:35:21;;;;;;;2.17;0.68;;;;;;;;;;4930325;29;20509;-51
2022/08/29 08:37:49;;;;;;;1.60;0.82;;;;;;;;;;4925683;29;20571;-51
2022/08/29 08:40:19;;;;;;;1.00;0.60;;;;;;;;;;4925951;29;20566;-50
2022/08/29 08:42:59;;;;;;;2.33;1.13;;;;;;;;;;4926019;29;20392;-50
2022/08/29 08:45:32;;;;;;;2.63;0.98;;;;;;;;;;4926341;29;20080;-62
2022/08/29 08:48:14;;;;;;;1.00;0.85;;;;;;;;;;4927027;29;20054;-51
2022/08/29 08:50:47;;;;;;;3.47;1.02;;;;;;;;;;4921179;29;20080;-47
2022/08/29 08:53:25;;;;;;;1.85;0.95;;;;;;;;;;4924168;29;20055;-49
2022/08/29 08:56:01;;;;;;;3.38;0.85;;;;;;;;;;4926923;29;20411;-48
2022/08/29 08:59:01;;;;;;;1.33;0.60;;;;;;;;;;4926028;29;20107;-46
2022/08/29 09:01:33;;;;;;;1.35;0.75;;;;;;;;;;4908269;29;20060;-51
2022/08/29 09:04:09;;;;;;;2.17;0.80;;;;;;;;;;4924928;29;20058;-63
2022/08/29 09:06:59;;;;;;;2.10;0.90;;;;;;;;;;4926831;29;20052;-62
2022/08/29 09:09:52;;;;;;;1.88;0.60;;;;;;;;;;4921507;29;20079;-62
2022/08/29 09:12:35;;;;;;;2.05;1.02;;;;;;;;;;4925353;29;20131;-62
2022/08/29 09:15:11;;;;;;;1.33;0.90;;;;;;;;;;4925873;29;20056;-61
2022/08/29 09:17:43;;;;;;;1.65;0.85;;;;;;;;;;4924959;29;20146;-62
2022/08/29 09:20:19;;;;;;;1.90;0.95;;;;;;;;;;4921780;29;20052;-62
2022/08/29 09:23:10;;;;;;;2.25;1.20;;;;;;;;;;4925748;29;20091;-66
2022/08/29 09:25:45;;;;;;;2.30;1.05;;;;;;;;;;4925031;29;20083;-51
2022/08/29 09:28:12;;;;;;;1.45;0.80;;;;;;;;;;4924333;29;20111;-48
2022/08/29 09:30:40;;;;;;;;;;;;;;;;;;4910083;29;20341;-49
2022/08/29 09:33:19;;;;;;;1.42;0.85;;;;;;;;;;4921703;29;20011;-53
2022/08/29 09:35:50;;;;;;;4.00;0.80;;;;;;;;;;4923175;29;20047;-47
2022/08/29 09:38:26;;;;;;;0.93;0.68;;;;;;;;;;4925238;29;20495;-48
2022/08/29 09:40:55;;;;;;;1.25;0.60;;;;;;;;;;4924426;29;20495;-60
2022/08/29 09:43:43;;;;;;;1.73;0.80;;;;;;;;;;4925358;29;20044;-48
2022/08/29 09:46:22;;;;;;;1.50;0.77;;;;;;;;;;4926641;29;20052;-47
2022/08/29 09:48:50;;;;;;;2.83;0.68;;;;;;;;;;4921790;29;20478;-45
2022/08/29 09:51:25;;;;;;;0.75;0.55;;;;;;;;;;4920075;29;20059;-48
2022/08/29 09:54:26;;;;;;;1.50;0.73;;;;;;;;;;4920094;29;21030;-47
2022/08/29 09:57:20;;;;;;;1.00;0.50;;;;;;;;;;4923974;29;20593;-45
2022/08/29 10:00:09;;;;;;;1.20;0.70;;;;;;;;;;4924220;29;20133;-64
2022/08/29 10:02:43;;;;;;;3.20;0.50;;;;;;;;;;4918121;29;20043;-55
2022/08/29 10:05:35;;;;;;;1.92;1.08;;;;;;;;;;4925854;29;20155;-56
2022/08/29 10:08:23;;;;;;;1.38;0.90;;;;;;;;;;4923916;29;20587;-54
2022/08/29 10:10:53;;;;;;;1.85;1.00;;;;;;;;;;4925168;29;20079;-56
2022/08/29 10:13:32;;;;;;;1.80;0.80;;;;;;;;;;4921904;29;20571;-56
2022/08/29 10:16:06;;;;;;;2.42;0.75;;;;;;;;;;4925475;29;20083;-53
2022/08/29 10:18:49;;;;;;;1.60;0.98;;;;;;;;;;4922398;29;20052;-60
2022/08/29 10:21:17;;;;;;;2.83;1.02;;;;;;;;;;4926228;29;20063;-60
2022/08/29 10:24:09;;;;;;;1.23;0.68;;;;;;;;;;4921707;29;20063;-60
2022/08/29 10:26:59;;;;;;;1.77;0.90;;;;;;;;;;4924597;29;20086;-60
2022/08/29 10:29:52;;;;;;;2.17;0.98;;;;;;;;;;4917474;29;20043;-60
2022/08/29 10:32:38;;;;;;;0.45;0.43;;;;;;;;;;4923203;29;20086;-60
2022/08/29 10:35:13;;;;;;;0.75;0.50;;;;;;;;;;4922336;29;20044;-68
2022/08/29 10:37:48;;;;;;;3.47;0.70;;;;;;;;;;4924119;29;20099;-59
2022/08/29 10:40:25;;;;;;;0.80;0.70;;;;;;;;;;4924498;29;20048;-69
2022/08/29 10:42:59;;;;;;;4.40;0.90;;;;;;;;;;4922301;28;20523;-68
2022/08/29 10:45:56;;;;;;;1.25;0.90;;;;;;;;;;4915577;29;20047;-68
2022/08/29 10:48:30;;;;;;;2.97;0.70;;;;;;;;;;4922985;29;20055;-70
2022/08/29 10:51:19;;;;;;;4.03;0.80;;;;;;;;;;4918390;29;20052;-68
2022/08/29 10:53:50;;;;;;;2.20;0.80;;;;;;;;;;4924076;29;20079;-56
2022/08/29 10:56:33;;;;;;;0.93;0.70;;;;;;;;;;4904131;29;20412;-53
2022/08/29 10:59:01;;;;;;;3.20;0.70;;;;;;;;;;4903032;29;20811;-50
2022/08/29 11:01:38;;;;;;;1.02;0.77;;;;;;;;;;4898023;29;20151;-51
2022/08/29 11:04:16;;;;;;;2.22;0.80;;;;;;;;;;4904565;29;20052;-53
2022/08/29 11:07:10;;;;;;;2.42;1.15;;;;;;;;;;4898803;29;20058;-53
2022/08/29 11:09:46;;;;;;;1.13;0.82;;;;;;;;;;4898842;29;20565;-53
2022/08/29 11:12:20;;;;;;;3.63;1.05;;;;;;;;;;4906027;29;20117;-57
2022/08/29 11:15:06;;;;;;;4.28;0.80;;;;;;;;;;4903574;29;20148;-52
2022/08/29 11:17:42;;;;;;;2.38;0.75;;;;;;;;;;4903516;29;20103;-51
2022/08/29 11:20:17;;;;;;;4.35;1.00;;;;;;;;;;4899733;29;20075;-52
2022/08/29 11:23:02;;;;;;;2.75;1.20;;;;;;;;;;4903803;29;20139;-49
2022/08/29 11:25:31;;;;;;;4.00;0.90;;;;;;;;;;4904285;29;20071;-52
2022/08/29 11:28:15;;;;;;;2.38;0.90;;;;;;;;;;4907309;29;20512;-53
2022/08/29 11:31:00;;;;;;;3.42;0.90;;;;;;;;;;4905036;29;20055;-64
2022/08/29 11:33:44;;;;;;;2.15;1.05;;;;;;;;;;4895144;29;20135;-64
2022/08/29 11:36:39;;;;;;;3.40;0.90;;;;;;;;;;4906286;29;20556;-64
2022/08/29 11:39:12;;;;;;;2.55;1.00;;;;;;;;;;4904065;29;20095;-64
2022/08/29 11:41:42;;;;;;;2.53;0.90;;;;;;;;;;4905965;29;20534;-64
2022/08/29 11:44:28;;;;;;;1.20;0.93;;;;;;;;;;4903341;29;20080;-62
2022/08/29 11:47:21;;;;;;;2.42;0.75;;;;;;;;;;4905572;29;20108;-65
2022/08/29 11:49:50;;;;;;;1.00;0.70;;;;;;;;;;4903586;29;20056;-60
2022/08/29 11:52:26;;;;;;;1.00;0.68;;;;;;;;;;4901689;29;20052;-45
2022/08/29 11:55:18;;;;;;;3.33;1.13;;;;;;;;;;4910331;29;20056;-46
2022/08/29 11:57:54;;;;;;;2.38;1.00;;;;;;;;;;4922104;29;20099;-46
2022/08/29 12:00:35;;;;;;;2.30;0.90;;;;;;;;;;4923832;29;20471;-47
2022/08/29 12:03:29;;;;;;;2.03;0.90;;;;;;;;;;4918130;29;20107;-49
2022/08/29 12:06:15;;;;;;;4.57;0.77;;;;;;;;;;4924208;29;20056;-47
2022/08/29 12:09:01;;;;;;;1.38;0.82;;;;;;;;;;4923026;29;20111;-64
2022/08/29 12:11:51;;;;;;;13.38;1.00;;;;;;;;;;4922730;29;20074;-50
2022/08/29 12:14:32;;;;;;;4.00;1.02;;;;;;;;;;4925689;29;20055;-50
2022/08/29 12:17:04;;;;;;;;;;;;;;;;;;4926590;29;20381;-49
2022/08/29 12:19:48;;;;;;;1.70;0.93;;;;;;;;;;4916966;29;19930;-52
2022/08/29 12:22:34;;;;;;;2.05;0.75;;;;;;;;;;4923530;29;20048;-49
2022/08/29 12:25:32;;;;;;;0.60;0.60;;;;;;;;;;4921231;29;20456;-68
2022/08/29 12:27:59;;;;;;;1.92;0.90;;;;;;;;;;4923382;29;20463;-47
2022/08/29 12:30:39;;;;;;;1.73;1.05;;;;;;;;;;4921307;29;20056;-54
2022/08/29 12:33:20;;;;;;;1.52;0.90;;;;;;;;;;4922731;29;20080;-56
2022/08/29 12:36:00;;;;;;;1.70;1.00;;;;;;;;;;4922132;29;20488;-52
2022/08/29 12:38:28;;;;;;;1.85;0.90;;;;;;;;;;4920609;29;20103;-55
2022/08/29 12:41:08;;;;;;;5.50;1.08;;;;;;;;;;4918805;29;20063;-54
2022/08/29 12:43:35;;;;;;;3.25;1.10;;;;;;;;;;4921093;29;20060;-47
2022/08/29 12:46:13;;;;;;;0.57;0.50;;;;;;;;;;4925508;29;20421;-67
2022/08/29 12:48:45;;;;;;;1.45;0.90;;;;;;;;;;4922105;29;20069;-51
2022/08/29 12:51:40;;;;;;;3.00;0.80;;;;;;;;;;4906976;29;20048;-52
2022/08/29 12:54:09;;;;;;;0.80;0.80;;;;;;;;;;4922616;29;20044;-46
2022/08/29 12:56:51;;;;;;;5.18;1.00;;;;;;;;;;4921340;29;20778;-50
2022/08/29 12:59:19;;;;;;;1.80;1.00;;;;;;;;;;4923105;29;20139;-48
2022/08/29 13:01:56;;;;;;;1.88;0.90;;;;;;;;;;4926835;29;20051;-68
2022/08/29 13:04:25;;;;;;;3.13;0.80;;;;;;;;;;4920886;28;20078;-47
2022/08/29 13:07:02;;;;;;;1.52;0.77;;;;;;;;;;4924114;29;20052;-68
2022/08/29 13:09:41;;;;;;;1.70;0.77;;;;;;;;;;4917754;29;20058;-68
2022/08/29 13:12:25;;;;;;;3.72;0.80;;;;;;;;;;4924522;29;20051;-68
2022/08/29 13:15:17;;;;;;;2.28;1.20;;;;;;;;;;4924752;29;20060;-68
2022/08/29 13:17:46;;;;;;;1.15;0.75;;;;;;;;;;4924867;29;20485;-69
2022/08/29 13:20:41;;;;;;;1.30;0.82;;;;;;;;;;4923821;29;20095;-59
2022/08/29 13:23:12;;;;;;;1.00;0.82;;;;;;;;;;4925334;29;20055;-65
2022/08/29 13:25:55;;;;;;;1.27;0.70;;;;;;;;;;4924118;29;20360;-51
2022/08/29 13:28:23;;;;;;;0.63;0.63;;;;;;;;;;4924746;29;20081;-46
2022/08/29 13:31:03;;;;;;;2.05;0.93;;;;;;;;;;4927280;29;20484;-47
2022/08/29 13:33:31;;;;;;;2.15;0.80;;;;;;;;;;4924569;29;20047;-47
2022/08/29 13:36:24;;;;;;;1.10;0.88;;;;;;;;;;4924264;29;20111;-48
2022/08/29 13:39:10;;;;;;;0.60;0.57;;;;;;;;;;4921855;29;20092;-57
2022/08/29 13:41:46;;;;;;;1.02;0.65;;;;;;;;;;4924603;29;20111;-64
2022/08/29 13:44:18;;;;;;;0.98;0.82;;;;;;;;;;4915999;29;20048;-63
2022/08/29 13:46:46;;;;;;;1.92;1.10;;;;;;;;;;4919569;29;20109;-64
2022/08/29 13:49:22;;;;;;;1.85;0.60;;;;;;;;;;4922516;29;20055;-63
2022/08/29 13:51:49;;;;;;;2.58;0.95;;;;;;;;;;4925931;29;20048;-59
2022/08/29 13:54:16;;;;;;;1.80;0.90;;;;;;;;;;4926151;28;20052;-62
2022/08/29 13:56:59;;;;;;;1.77;0.93;;;;;;;;;;4923965;29;20582;-63
2022/08/29 13:59:33;;;;;;;1.77;0.82;;;;;;;;;;4926631;29;20047;-59
2022/08/29 14:02:07;;;;;;;1.70;0.77;;;;;;;;;;4923278;29;20467;-63
2022/08/29 14:04:36;;;;;;;3.22;0.90;;;;;;;;;;4924827;29;20419;-63
2022/08/29 14:07:08;;;;;;;1.48;0.88;;;;;;;;;;4922847;29;20043;-63
2022/08/29 14:09:44;;;;;;;1.48;1.10;;;;;;;;;;4918090;28;20082;-63
2022/08/29 14:12:12;;;;;;;5.82;1.42;;;;;;;;;;4921547;29;20430;-63
2022/08/29 14:14:40;;;;;;;1.00;0.75;;;;;;;;;;4926687;29;20083;-63
2022/08/29 14:17:15;;;;;;;4.70;1.00;;;;;;;;;;4912494;29;20079;-47
2022/08/29 14:19:45;;;;;;;1.40;0.80;;;;;;;;;;4921865;29;20087;-63
2022/08/29 14:22:12;;;;;;;1.15;0.90;;;;;;;;;;4922487;29;20056;-63
2022/08/29 14:24:51;;;;;;;1.80;1.10;;;;;;;;;;4920935;29;20523;-63
2022/08/29 14:27:20;;;;;;;4.07;1.10;;;;;;;;;;4922510;29;20082;-63
2022/08/29 14:29:54;;;;;;;2.25;0.88;;;;;;;;;;4922783;29;20107;-63
2022/08/29 14:32:23;;;;;;;1.83;1.10;;;;;;;;;;4922658;29;20067;-63
2022/08/29 14:34:52;;;;;;;1.52;0.82;;;;;;;;;;4922167;29;20074;-48
2022/08/29 14:37:26;;;;;;;1.17;0.85;;;;;;;;;;4922170;29;20087;-63
2022/08/29 14:39:54;;;;;;;3.92;1.00;;;;;;;;;;4922710;29;20102;-63
2022/08/29 14:42:21;;;;;;;2.65;1.05;;;;;;;;;;4925791;29;20437;-62
2022/08/29 14:44:55;;;;;;;3.60;0.82;;;;;;;;;;4923006;29;20178;-63
2022/08/29 14:47:22;;;;;;;4.90;1.20;;;;;;;;;;4923979;29;20514;-63
2022/08/29 14:49:49;;;;;;;6.18;1.00;;;;;;;;;;4923059;29;20122;-62
2022/08/29 14:52:25;;;;;;;1.75;1.05;;;;;;;;;;4917136;29;20052;-60
2022/08/29 14:55:01;;;;;;;4.32;1.30;;;;;;;;;;4924350;29;20056;-57
2022/08/29 14:57:35;;;;;;;2.97;0.85;;;;;;;;;;4917513;29;20115;-62
2022/08/29 15:00:08;;;;;;;1.85;1.00;;;;;;;;;;4920430;29;20536;-62
2022/08/29 15:02:42;;;;;;;1.27;0.80;;;;;;;;;;4919682;29;20095;-62
2022/08/29 15:05:09;;;;;;;1.38;0.95;;;;;;;;;;4925024;29;20055;-61
2022/08/29 15:07:36;;;;;;;2.08;0.70;;;;;;;;;;4922311;29;20063;-63
2022/08/29 15:10:11;;;;;;;2.67;1.00;;;;;;;;;;4925072;29;20514;-62
2022/08/29 15:12:39;;;;;;;1.77;0.70;;;;;;;;;;4924971;29;20143;-67
2022/08/29 15:15:07;;;;;;;1.98;0.82;;;;;;;;;;4924118;29;20287;-50
2022/08/29 15:17:42;;;;;;;2.80;0.70;;;;;;;;;;4922356;29;20056;-45
2022/08/29 15:20:10;;;;;;;3.00;0.80;;;;;;;;;;4923230;29;20056;-46
2022/08/29 15:22:57;;;;;;;1.02;0.93;;;;;;;;;;4924668;29;20138;-47
2022/08/29 15:25:31;;;;;;;1.08;0.85;;;;;;;;;;4926426;29;20106;-49
2022/08/29 15:27:59;;;;;;;0.65;0.60;;;;;;;;;;4921837;29;20051;-46